Time;durP1;ratioP1;P1;durP2;ratioP2;P2;SDS_P1;SDS_P2;PMS_P1;PMS_P2;Temp;Humidity;BMP_temperature;BMP_pressure;BME280_temperature;BME280_humidity;BME280_pressure;Samples;Min_cycle;Max_cycle;Signal;HPM_P1;HPM_P2
2022/06/14 00:01:18;;;;;;;6.22;2.53;;;;;;;10.14;73.95;100063.38;5049083;28;20024;-55
2022/06/14 00:03:44;;;;;;;7.60;2.80;;;;;;;10.20;73.62;100061.69;5066854;28;20028;-55
2022/06/14 00:06:21;;;;;;;11.25;2.60;;;;;;;10.03;74.17;100061.41;5068196;28;20028;-56
2022/06/14 00:08:46;;;;;;;5.50;2.30;;;;;;;10.19;73.73;100064.59;5065783;28;20040;-56
2022/06/14 00:11:14;;;;;;;6.93;2.40;;;;;;;10.30;73.12;100066.56;5067016;28;20070;-56
2022/06/14 00:13:40;;;;;;;12.73;3.13;;;;;;;10.42;75.32;100064.00;5048465;28;20032;-56
2022/06/14 00:16:06;;;;;;;7.75;2.38;;;;;;;10.24;73.64;100067.44;5066075;28;20041;-56
2022/06/14 00:18:31;;;;;;;10.65;2.88;;;;;;;10.08;74.92;100061.59;5047625;28;20589;-55
2022/06/14 00:20:57;;;;;;;10.75;2.50;;;;;;;10.25;76.21;100074.41;5067435;28;20112;-56
2022/06/14 00:23:22;;;;;;;6.47;2.70;;;;;;;9.93;76.10;100066.41;5065001;28;20058;-55
2022/06/14 00:25:51;;;;;;;7.88;2.50;;;;;;;10.01;75.15;100068.00;5067023;28;20061;-56
2022/06/14 00:28:17;;;;;;;9.93;3.53;;;;;;;10.12;75.46;100070.81;5066371;28;20025;-55
2022/06/14 00:30:44;;;;;;;9.20;2.67;;;;;;;10.20;74.84;100074.25;5049520;28;20024;-56
2022/06/14 00:33:11;;;;;;;7.78;2.40;;;;;;;10.06;75.28;100071.69;5065915;28;20025;-56
2022/06/14 00:35:37;;;;;;;6.90;2.30;;;;;;;9.86;76.17;100068.31;5067694;28;20035;-56
2022/06/14 00:38:03;;;;;;;9.52;2.85;;;;;;;10.05;74.96;100074.59;5066463;28;20810;-56
2022/06/14 00:40:31;;;;;;;8.60;3.22;;;;;;;10.15;75.13;100064.19;5066390;28;20031;-57
2022/06/14 00:42:57;;;;;;;6.55;2.50;;;;;;;10.41;76.57;100067.69;5049075;28;20111;-55
2022/06/14 00:45:22;;;;;;;7.75;2.50;;;;;;;10.70;75.20;100064.31;5067913;28;20712;-57
2022/06/14 00:47:58;;;;;;;9.15;2.40;;;;;;;10.26;75.67;100063.50;5068195;28;20029;-55
2022/06/14 00:50:31;;;;;;;4.65;2.15;;;;;;;10.02;75.89;100056.28;5070265;28;20059;-56
2022/06/14 00:53:09;;;;;;;7.15;2.58;;;;;;;9.98;75.18;100066.59;5046208;28;20031;-56
2022/06/14 00:55:44;;;;;;;6.32;2.20;;;;;;;10.04;74.46;100060.38;5033292;28;20047;-56
2022/06/14 00:58:13;;;;;;;6.38;2.80;;;;;;;10.01;74.58;100054.63;5070012;28;20025;-56
2022/06/14 01:00:51;;;;;;;5.53;2.40;;;;;;;9.99;74.86;100067.44;5070457;28;20028;-56
2022/06/14 01:03:20;;;;;;;5.30;2.15;;;;;;;9.78;76.62;100066.72;5050551;28;20020;-56
2022/06/14 01:06:06;;;;;;;4.38;2.03;;;;;;;9.75;76.83;100072.53;5070011;28;20033;-55
2022/06/14 01:08:56;;;;;;;6.43;2.67;;;;;;;9.84;76.55;100059.72;5042814;28;20045;-55
2022/06/14 01:11:32;;;;;;;7.20;2.40;;;;;;;9.81;77.16;100058.28;5069099;28;20464;-56
2022/06/14 01:13:57;;;;;;;5.78;2.63;;;;;;;9.71;77.18;100058.78;5033734;28;20139;-55
2022/06/14 01:16:22;;;;;;;7.25;2.72;;;;;;;9.47;77.97;100063.03;5034843;28;20499;-56
2022/06/14 01:18:48;;;;;;;12.15;3.20;;;;;;;9.31;78.93;100062.69;5053433;28;20021;-56
2022/06/14 01:21:15;;;;;;;8.65;2.65;;;;;;;9.28;79.50;100059.44;5047714;28;20019;-55
2022/06/14 01:23:40;;;;;;;5.95;2.40;;;;;;;9.10;79.65;100051.28;5070549;28;20108;-54
2022/06/14 01:26:17;;;;;;;6.07;2.72;;;;;;;9.15;79.74;100051.47;5043981;28;20020;-56
2022/06/14 01:28:44;;;;;;;7.88;2.38;;;;;;;9.14;79.72;100051.69;5044390;28;20434;-55
2022/06/14 01:31:10;;;;;;;7.47;2.53;;;;;;;8.95;80.04;100050.72;5050542;28;20371;-55
2022/06/14 01:33:43;;;;;;;6.85;2.70;;;;;;;8.89;81.38;100054.25;5043277;28;20032;-55
2022/06/14 01:36:10;;;;;;;6.90;2.70;;;;;;;8.92;81.24;100057.31;5069204;28;20145;-55
2022/06/14 01:38:36;;;;;;;10.25;2.88;;;;;;;9.08;79.50;100048.00;5043461;28;20055;-54
2022/06/14 01:41:08;;;;;;;8.23;2.75;;;;;;;8.98;79.55;100050.31;5049579;28;20024;-55
2022/06/14 01:43:55;;;;;;;7.90;3.20;;;;;;;9.03;79.13;100048.63;5021956;28;20029;-55
2022/06/14 01:46:23;;;;;;;5.65;2.50;;;;;;;9.06;80.01;100039.34;5047953;28;20036;-55
2022/06/14 01:52:03;;;;;;;7.90;2.88;;;;;;;8.94;79.74;100027.72;5052088;28;20130;-55
2022/06/14 01:54:59;;;;;;;7.75;2.58;;;;;;;9.26;80.46;100034.75;5024146;28;20028;-55
2022/06/14 01:57:32;;;;;;;6.55;2.50;;;;;;;9.28;80.35;100043.38;5043438;28;20037;-56
2022/06/14 02:00:08;;;;;;;7.90;2.72;;;;;;;9.18;80.97;100032.31;5051608;28;20032;-55
2022/06/14 02:06:08;;;;;;;11.45;3.42;;;;;;;9.00;80.62;100026.84;5048528;28;20083;-56
2022/06/14 02:08:37;;;;;;;7.57;2.78;;;;;;;8.87;80.73;100025.06;5042098;28;20407;-55
2022/06/14 02:11:13;;;;;;;10.30;2.80;;;;;;;8.79;81.60;100033.31;5036532;28;20021;-55
2022/06/14 02:13:48;;;;;;;7.18;2.80;;;;;;;8.70;82.00;100024.69;5045957;28;20025;-55
2022/06/14 02:16:32;;;;;;;7.80;2.70;;;;;;;8.76;81.49;100026.53;5045683;28;20028;-55
2022/06/14 02:19:03;;;;;;;11.55;2.97;;;;;;;8.97;80.33;100029.94;5051679;28;20391;-55
2022/06/14 02:21:49;;;;;;;7.13;2.67;;;;;;;8.75;80.72;100024.88;5049058;28;20025;-56
2022/06/14 02:24:21;;;;;;;13.82;3.15;;;;;;;8.74;81.32;100025.94;5063721;28;20605;-57
2022/06/14 02:26:58;;;;;;;11.00;3.10;;;;;;;8.67;81.50;100022.44;5035741;28;20036;-57
2022/06/14 02:29:26;;;;;;;13.90;3.53;;;;;;;8.76;80.95;100021.19;5050629;28;20070;-57
2022/06/14 02:31:56;;;;;;;11.35;3.13;;;;;;;8.69;82.12;100012.38;5045703;28;20028;-57
2022/06/14 02:34:28;;;;;;;13.77;3.33;;;;;;;8.72;81.66;100017.28;5065901;28;20316;-56
2022/06/14 02:37:09;;;;;;;9.30;3.10;;;;;;;8.65;81.78;100016.50;5023383;28;20289;-56
2022/06/14 02:40:06;;;;;;;6.30;3.20;;;;;;;8.80;81.27;100005.53;5046876;28;20058;-55
2022/06/14 02:42:38;;;;;;;7.03;2.75;;;;;;;8.89;80.92;100008.81;5063487;28;20119;-56
2022/06/14 02:45:07;;;;;;;8.70;3.10;;;;;;;8.87;80.66;100001.00;5050152;28;20032;-55
2022/06/14 02:47:44;;;;;;;13.93;3.37;;;;;;;8.91;83.18;100009.41;5050597;28;20038;-55
2022/06/14 02:50:21;;;;;;;5.60;2.75;;;;;;;8.78;81.27;100004.94;5050815;28;20483;-56
2022/06/14 02:52:55;;;;;;;10.25;3.17;;;;;;;9.09;83.05;100014.06;5032529;28;20487;-55
2022/06/14 02:55:26;;;;;;;6.00;2.90;;;;;;;9.09;82.46;100017.56;5062501;28;20025;-55
2022/06/14 02:58:16;;;;;;;7.65;2.60;;;;;;;8.65;80.62;100016.50;5032770;28;20609;-55
2022/06/14 03:00:51;;;;;;;12.23;2.83;;;;;;;8.50;81.85;100019.41;5067546;28;20094;-56
2022/06/14 03:03:23;;;;;;;9.48;2.78;;;;;;;8.30;82.45;100019.41;5049688;28;20482;-54
2022/06/14 03:05:54;;;;;;;11.65;3.00;;;;;;;8.29;83.51;100023.13;5044970;28;20041;-56
2022/06/14 03:08:31;;;;;;;6.47;2.72;;;;;;;8.25;84.32;100023.75;5066076;28;20044;-56
2022/06/14 03:11:17;;;;;;;11.88;3.35;;;;;;;8.35;84.21;100024.13;5022457;28;20109;-56
2022/06/14 03:14:15;;;;;;;8.75;3.40;;;;;;;8.18;83.80;100023.75;5046819;28;20021;-56
2022/06/14 03:17:25;;;;;;;10.82;3.38;;;;;;;8.17;83.40;100033.63;5040558;28;20032;-55
2022/06/14 03:20:11;;;;;;;11.35;3.22;;;;;;;8.21;83.27;100037.53;5039095;28;20056;-55
2022/06/14 03:22:44;;;;;;;10.98;3.35;;;;;;;8.37;83.46;100022.91;5043823;28;20029;-56
2022/06/14 03:25:13;;;;;;;7.63;3.10;;;;;;;8.61;83.54;100029.47;5066688;28;20379;-57
2022/06/14 03:27:42;;;;;;;8.10;2.65;;;;;;;8.45;81.02;100029.09;5041904;28;20055;-56
2022/06/14 03:30:17;;;;;;;10.45;2.85;;;;;;;8.50;81.99;100023.94;5050343;28;20032;-57
2022/06/14 03:32:48;;;;;;;9.25;3.20;;;;;;;8.95;80.25;100022.13;5030880;28;20025;-56
2022/06/14 03:35:30;;;;;;;4.97;2.80;;;;;;;9.22;81.78;100027.38;5023930;28;20035;-57
2022/06/14 03:37:56;;;;;;;9.07;2.75;;;;;;;9.19;79.16;100023.25;5048627;28;20029;-56
2022/06/14 03:40:21;;;;;;;7.55;2.83;;;;;;;9.23;79.66;100027.13;5029208;28;20314;-57
2022/06/14 03:42:47;;;;;;;7.05;3.25;;;;;;;9.53;78.08;100029.22;5032705;28;20467;-56
2022/06/14 03:45:13;;;;;;;6.57;2.80;;;;;;;9.15;78.91;100024.72;5068027;28;20467;-56
2022/06/14 03:47:39;;;;;;;7.15;2.80;;;;;;;9.55;80.77;100027.16;5028353;28;20039;-56
2022/06/14 03:50:14;;;;;;;7.15;2.80;;;;;;;10.74;73.29;100032.53;5049900;28;20025;-57
2022/06/14 03:52:45;;;;;;;4.57;2.35;;;;;;;12.15;68.68;100033.00;5051535;28;20453;-55
2022/06/14 03:55:32;;;;;;;10.68;2.78;;;;;;;12.21;65.60;100034.78;5066304;28;20321;-56
2022/06/14 03:57:58;;;;;;;7.35;3.00;;;;;;;12.51;64.80;100040.03;5068113;28;20027;-57
2022/06/14 04:00:51;;;;;;;11.25;2.70;;;;;;;12.35;65.08;100037.22;5067268;28;20024;-57
2022/06/14 04:03:29;;;;;;;3.80;2.05;;;;;;;13.52;61.00;100045.03;5044519;28;20078;-56
2022/06/14 04:06:25;;;;;;;6.45;2.50;;;;;;;13.68;59.85;100039.91;5068487;28;20032;-57
2022/06/14 04:09:24;;;;;;;6.47;2.35;;;;;;;14.10;58.93;100034.94;5067668;28;20055;-55
2022/06/14 04:11:50;;;;;;;7.77;2.53;;;;;;;14.80;57.94;100049.75;5067269;28;20032;-57
2022/06/14 04:14:27;;;;;;;8.38;2.45;;;;;;;15.75;54.35;100046.75;5067677;28;20693;-57
2022/06/14 04:16:54;;;;;;;7.95;2.72;;;;;;;16.54;52.33;100039.75;5067068;28;20033;-58
2022/06/14 04:19:41;;;;;;;8.13;2.28;;;;;;;15.04;56.81;100039.50;5050061;28;20571;-59
2022/06/14 04:22:36;;;;;;;7.40;2.33;;;;;;;16.85;50.92;100029.94;5063043;28;20073;-56
2022/06/14 04:25:09;;;;;;;4.65;1.98;;;;;;;16.98;50.06;100024.03;5070414;28;20043;-55
2022/06/14 04:27:50;;;;;;;7.80;2.30;;;;;;;17.11;50.02;100021.91;5038190;28;20025;-56
2022/06/14 04:30:16;;;;;;;5.40;2.30;;;;;;;17.75;48.09;100026.91;5069190;28;20065;-54
2022/06/14 04:32:49;;;;;;;8.30;2.70;;;;;;;15.76;53.81;100028.66;5071087;28;20532;-55
2022/06/14 04:35:30;;;;;;;7.00;2.42;;;;;;;16.69;51.94;100026.28;5060788;28;20056;-56
2022/06/14 04:38:07;;;;;;;7.68;2.42;;;;;;;18.17;49.57;100023.13;5053701;28;20039;-56
2022/06/14 04:40:58;;;;;;;5.07;2.28;;;;;;;18.01;48.14;100033.16;5027726;28;20048;-58
2022/06/14 04:43:38;;;;;;;5.90;2.35;;;;;;;16.46;51.89;100024.81;5071119;28;20028;-56
2022/06/14 04:46:09;;;;;;;6.78;2.70;;;;;;;17.09;51.74;100024.06;5029104;28;20023;-56
2022/06/14 04:49:12;;;;;;;8.82;2.40;;;;;;;17.53;51.14;100027.16;5053023;28;20028;-56
2022/06/14 04:52:08;;;;;;;6.18;2.38;;;;;;;18.52;47.58;100030.38;5068084;28;20055;-55
2022/06/14 04:54:45;;;;;;;8.70;2.45;;;;;;;18.81;46.00;100026.25;5039126;28;20090;-56
2022/06/14 04:57:43;;;;;;;7.63;2.55;;;;;;;19.40;44.93;100030.84;5065904;28;20107;-56
2022/06/14 05:00:16;;;;;;;6.90;2.22;;;;;;;19.56;45.32;100037.78;5057267;28;20045;-56
2022/06/14 05:02:44;;;;;;;5.40;2.17;;;;;;;19.74;44.02;100030.88;5057189;28;20060;-56
2022/06/14 05:05:27;;;;;;;4.30;2.20;;;;;;;19.02;46.83;100027.78;5069471;28;20610;-56
2022/06/14 05:08:13;;;;;;;10.00;2.20;;;;;;;21.12;42.44;100031.41;5068196;28;20113;-57
2022/06/14 05:10:46;;;;;;;6.97;2.40;;;;;;;20.84;42.54;100036.66;5026942;28;20044;-57
2022/06/14 05:13:37;;;;;;;8.05;2.40;;;;;;;21.62;40.98;100037.28;5029950;28;20068;-56
2022/06/14 05:16:07;;;;;;;7.65;2.28;;;;;;;21.76;41.08;100034.59;5040608;28;20232;-57
2022/06/14 05:18:50;;;;;;;7.05;2.58;;;;;;;22.08;40.33;100027.50;5031294;28;20325;-57
2022/06/14 05:21:36;;;;;;;7.70;2.70;;;;;;;21.95;39.95;100040.03;5031430;28;20036;-57
2022/06/14 05:24:01;;;;;;;4.82;2.05;;;;;;;20.56;42.72;100032.88;5037700;28;20179;-56
2022/06/14 05:26:33;;;;;;;8.60;2.70;;;;;;;22.45;40.90;100034.78;5036626;28;20032;-57
2022/06/14 05:29:12;;;;;;;6.55;2.53;;;;;;;22.46;39.56;100038.31;5045975;28;20022;-57
2022/06/14 05:31:54;;;;;;;6.25;2.53;;;;;;;22.93;38.70;100039.84;5029005;28;20579;-56
2022/06/14 05:34:41;;;;;;;9.43;2.60;;;;;;;22.21;40.37;100040.41;5032332;28;20025;-57
2022/06/14 05:37:19;;;;;;;6.32;2.40;;;;;;;23.09;38.51;100040.38;5031259;28;20383;-57
2022/06/14 05:39:47;;;;;;;5.83;2.27;;;;;;;22.87;38.87;100038.34;5026723;28;20033;-57
2022/06/14 05:42:16;;;;;;;5.90;2.30;;;;;;;23.95;37.16;100044.19;5035984;28;20028;-56
2022/06/14 05:44:43;;;;;;;8.02;2.42;;;;;;;23.82;37.38;100041.19;4997929;28;20791;-55
2022/06/14 05:47:17;;;;;;;8.02;2.28;;;;;;;24.30;36.77;100046.00;5014443;28;20056;-55
2022/06/14 05:49:46;;;;;;;6.88;2.30;;;;;;;25.24;34.60;100045.09;5039431;28;20423;-55
2022/06/14 05:52:26;;;;;;;6.97;2.30;;;;;;;24.33;36.31;100039.88;5005052;28;20120;-55
2022/06/14 05:54:58;;;;;;;13.65;2.50;;;;;;;24.13;37.06;100040.44;5032806;28;20029;-55
2022/06/14 05:57:47;;;;;;;8.40;2.90;;;;;;;21.17;41.53;100035.97;5030829;28;20329;-55
2022/06/14 06:00:43;;;;;;;8.55;2.83;;;;;;;22.47;39.64;100035.31;5032610;28;20055;-55
2022/06/14 06:03:17;;;;;;;10.40;2.53;;;;;;;23.28;38.22;100037.50;5027261;28;20048;-55
2022/06/14 06:05:48;;;;;;;10.88;2.60;;;;;;;24.36;36.77;100037.66;5043062;28;20017;-55
2022/06/14 06:08:34;;;;;;;10.35;2.83;;;;;;;23.89;36.94;100035.31;5032149;28;20048;-56
2022/06/14 06:11:17;;;;;;;13.02;3.00;;;;;;;23.18;37.24;100035.00;5046991;28;20033;-55
2022/06/14 06:13:51;;;;;;;8.55;3.05;;;;;;;24.63;35.79;100032.00;5046405;28;20040;-55
2022/06/14 06:16:34;;;;;;;10.23;2.72;;;;;;;22.50;38.10;100034.69;5068795;28;20036;-58
2022/06/14 06:19:11;;;;;;;8.30;2.97;;;;;;;24.65;36.21;100024.25;5049389;28;20331;-56
2022/06/14 06:21:53;;;;;;;7.82;2.92;;;;;;;24.49;36.06;100025.84;5042618;28;20029;-56
2022/06/14 06:24:37;;;;;;;10.40;3.17;;;;;;;25.73;34.82;100026.53;5049751;28;20105;-56
2022/06/14 06:27:12;;;;;;;13.32;3.03;;;;;;;25.25;35.39;100031.03;5069068;28;20520;-56
2022/06/14 06:29:57;;;;;;;12.27;3.25;;;;;;;25.43;35.00;100034.59;5046402;28;20479;-56
2022/06/14 06:32:23;;;;;;;16.10;3.67;;;;;;;25.71;33.24;100026.88;5036931;28;20036;-55
2022/06/14 06:34:51;;;;;;;15.77;3.45;;;;;;;25.58;33.18;100031.38;5033230;28;20020;-57
2022/06/14 06:37:32;;;;;;;28.08;4.20;;;;;;;23.65;35.91;100035.56;5048607;28;20463;-56
2022/06/14 06:39:59;;;;;;;23.50;4.68;;;;;;;23.61;37.54;100035.38;5047625;28;20119;-56
2022/06/14 06:42:50;;;;;;;30.17;4.43;;;;;;;24.27;35.75;100037.63;5023290;28;20383;-56
2022/06/14 06:45:18;;;;;;;27.88;4.60;;;;;;;25.06;35.05;100039.56;5065257;28;20115;-56
2022/06/14 06:47:44;;;;;;;;;;;;;;;26.20;33.63;100032.94;5039855;28;20064;-56
2022/06/14 06:50:41;;;;;;;19.88;4.32;;;;;;;26.15;32.73;100037.78;5066459;28;20408;-56
2022/06/14 06:53:11;;;;;;;33.70;4.53;;;;;;;26.27;33.22;100032.44;5069055;28;20534;-57
2022/06/14 06:55:45;;;;;;;30.58;4.50;;;;;;;24.37;36.21;100033.81;5033312;28;20032;-57
2022/06/14 06:58:26;;;;;;;37.58;4.78;;;;;;;25.72;34.13;100024.91;5046616;28;20024;-57
2022/06/14 07:00:54;;;;;;;34.65;4.80;;;;;;;25.20;35.36;100035.88;5049295;28;20056;-57
2022/06/14 07:03:21;;;;;;;29.48;4.38;;;;;;;24.78;35.90;100038.19;5065743;28;20024;-58
2022/06/14 07:05:50;;;;;;;26.92;4.80;;;;;;;24.55;36.62;100027.28;5068341;28;20111;-57
2022/06/14 07:08:21;;;;;;;21.08;4.05;;;;;;;26.09;34.07;100028.94;5049580;28;20107;-55
2022/06/14 07:10:50;;;;;;;18.05;3.90;;;;;;;26.87;32.85;100030.59;5047043;28;20032;-55
2022/06/14 07:13:29;;;;;;;15.63;3.80;;;;;;;25.13;34.82;100028.91;5017715;28;20371;-55
2022/06/14 07:16:05;;;;;;;22.38;3.90;;;;;;;25.70;34.20;100029.94;5067031;28;20020;-57
2022/06/14 07:18:36;;;;;;;25.80;4.35;;;;;;;25.81;33.62;100026.53;5039940;28;20035;-57
2022/06/14 07:21:34;;;;;;;27.20;4.10;;;;;;;26.79;32.40;100028.69;5039676;28;20045;-57
2022/06/14 07:24:02;;;;;;;19.20;4.32;;;;;;;26.94;32.03;100033.63;5023415;28;20763;-57
2022/06/14 07:26:40;;;;;;;26.25;4.70;;;;;;;26.50;32.19;100032.19;5033569;28;20039;-57
2022/06/14 07:29:14;;;;;;;22.02;4.07;;;;;;;25.72;33.88;100035.91;5028478;28;20028;-57
2022/06/14 07:31:57;;;;;;;22.77;4.35;;;;;;;26.44;32.76;100029.63;5068573;28;20032;-57
2022/06/14 07:34:22;;;;;;;17.85;3.65;;;;;;;28.12;30.48;100038.03;5056261;28;20229;-57
2022/06/14 07:37:09;;;;;;;19.85;3.95;;;;;;;27.46;31.81;100044.28;5049198;28;20364;-57
2022/06/14 07:39:43;;;;;;;21.95;4.10;;;;;;;26.77;31.66;100034.50;5063852;28;20123;-57
2022/06/14 07:42:19;;;;;;;17.17;3.40;;;;;;;27.15;31.79;100033.63;5042686;28;20078;-57
2022/06/14 07:45:14;;;;;;;25.67;4.45;;;;;;;26.21;32.90;100037.31;5068071;28;20020;-57
2022/06/14 07:47:45;;;;;;;19.15;4.05;;;;;;;26.78;32.75;100030.63;5012846;28;20044;-57
2022/06/14 07:50:14;;;;;;;27.13;3.88;;;;;;;26.31;32.82;100033.41;5068256;28;20016;-56
2022/06/14 07:53:29;;;;;;;18.60;3.83;;;;;;;27.00;31.62;100028.72;5048605;28;20514;-57
2022/06/14 07:56:09;;;;;;;19.85;3.90;;;;;;;26.09;33.21;100022.63;5061199;28;20143;-58
2022/06/14 07:58:44;;;;;;;27.73;4.55;;;;;;;25.97;33.43;100023.31;5045162;28;20090;-56
2022/06/14 08:01:15;;;;;;;23.30;3.92;;;;;;;25.30;35.12;100019.13;5053758;28;20027;-56
2022/06/14 08:03:50;;;;;;;28.88;3.85;;;;;;;26.82;32.81;100026.06;5038761;28;20029;-57
2022/06/14 08:06:32;;;;;;;21.92;3.60;;;;;;;26.66;33.37;100023.09;5071919;28;20033;-56
2022/06/14 08:09:29;;;;;;;20.13;4.22;;;;;;;27.94;31.14;100022.84;5036985;28;20076;-56
2022/06/14 08:11:59;;;;;;;25.38;3.83;;;;;;;27.81;31.17;100024.72;5053858;28;20120;-56
2022/06/14 08:14:29;;;;;;;26.42;4.25;;;;;;;27.58;31.54;100023.47;5072248;28;20028;-56
2022/06/14 08:16:54;;;;;;;16.52;3.55;;;;;;;28.02;31.14;100027.44;5057347;28;20394;-56
2022/06/14 08:19:33;;;;;;;22.42;3.80;;;;;;;27.34;31.13;100021.41;5027041;28;20028;-56
2022/06/14 08:22:05;;;;;;;18.20;3.72;;;;;;;27.45;32.03;100014.34;5052705;28;20111;-57
2022/06/14 08:24:35;;;;;;;18.15;4.22;;;;;;;27.02;32.31;100018.19;5055583;28;20040;-57
2022/06/14 08:27:32;;;;;;;26.42;4.30;;;;;;;26.74;32.81;100013.19;5027593;28;20055;-57
2022/06/14 08:30:02;;;;;;;23.35;3.92;;;;;;;25.93;33.68;100009.41;5071244;28;20024;-56
2022/06/14 08:32:55;;;;;;;20.98;3.42;;;;;;;25.65;35.10;100005.38;5049031;28;20821;-56
2022/06/14 08:35:44;;;;;;;18.63;3.63;;;;;;;26.90;32.83;100003.22;5026336;28;20074;-56
2022/06/14 08:38:46;;;;;;;16.65;3.35;;;;;;;27.60;32.30;100007.41;5047152;28;20020;-56
2022/06/14 08:41:33;;;;;;;18.98;3.95;;;;;;;27.66;31.53;100004.13;5043579;28;20043;-56
2022/06/14 08:44:01;;;;;;;19.55;3.30;;;;;;;28.02;30.71;100004.59;5071077;28;20020;-56
2022/06/14 08:46:34;;;;;;;13.80;3.45;;;;;;;26.92;32.32;99996.59;5053890;28;20042;-56
2022/06/14 08:49:27;;;;;;;24.83;3.75;;;;;;;27.30;32.35;99991.00;5052627;28;20107;-57
2022/06/14 08:52:20;;;;;;;17.33;3.38;;;;;;;26.40;33.56;99992.94;5067025;28;20114;-56
2022/06/14 08:55:09;;;;;;;19.98;3.45;;;;;;;26.41;33.40;99989.06;5066223;28;20138;-56
2022/06/14 08:57:54;;;;;;;17.67;3.15;;;;;;;26.06;32.99;99991.13;5063776;28;20056;-56
2022/06/14 09:00:32;;;;;;;19.42;3.88;;;;;;;23.45;37.37;99996.63;5036695;28;20059;-56
2022/06/14 09:03:35;;;;;;;17.77;4.22;;;;;;;24.15;36.34;99980.69;5026841;28;20087;-56
2022/06/14 09:06:26;;;;;;;17.08;3.28;;;;;;;26.35;33.47;99982.13;5069951;28;20040;-56
2022/06/14 09:09:01;;;;;;;16.33;3.45;;;;;;;26.38;32.70;99984.22;5064898;28;20178;-55
2022/06/14 09:11:47;;;;;;;17.05;2.88;;;;;;;27.21;31.09;99982.81;5069973;28;20024;-56
2022/06/14 09:15:05;;;;;;;14.52;3.20;;;;;;;26.93;30.38;99970.69;5065887;28;20028;-56
2022/06/14 09:17:45;;;;;;;10.98;2.90;;;;;;;26.76;30.75;99963.34;5036948;28;20418;-54
2022/06/14 09:20:18;;;;;;;11.60;2.85;;;;;;;27.59;30.09;99959.81;5052024;28;20070;-56
2022/06/14 09:23:09;;;;;;;12.85;2.95;;;;;;;26.71;31.53;99958.88;5053997;28;20043;-56
2022/06/14 09:25:46;;;;;;;16.17;2.95;;;;;;;27.05;31.10;99957.00;5067020;28;20032;-55
2022/06/14 09:28:24;;;;;;;11.48;2.47;;;;;;;26.14;32.69;99957.34;5047162;28;20024;-56
2022/06/14 09:30:56;;;;;;;10.18;2.92;;;;;;;25.74;32.71;99954.03;5034633;28;20025;-55
2022/06/14 09:33:56;;;;;;;11.40;3.13;;;;;;;23.74;36.35;99957.13;5068813;28;20082;-55
2022/06/14 09:36:59;;;;;;;12.77;2.92;;;;;;;23.22;35.73;99951.25;5061953;28;20163;-55
2022/06/14 09:39:49;;;;;;;7.60;2.70;;;;;;;25.95;32.15;99946.72;5066647;28;20028;-55
2022/06/14 09:42:27;;;;;;;;;;;;;;;26.10;31.77;99950.88;5050779;28;20451;-55
2022/06/14 09:44:59;;;;;;;10.63;2.60;;;;;;;26.11;32.21;99941.53;5051292;28;20019;-55
2022/06/14 09:47:36;;;;;;;9.15;2.47;;;;;;;26.96;30.72;99942.50;5069852;28;20025;-56
2022/06/14 09:50:07;;;;;;;6.47;2.30;;;;;;;26.93;31.27;99941.22;5069567;28;20163;-55
2022/06/14 09:52:57;;;;;;;14.38;2.92;;;;;;;27.30;31.35;99944.22;5069673;28;20021;-55
2022/06/14 09:55:48;;;;;;;12.27;2.80;;;;;;;26.75;31.70;99937.78;5046343;28;20078;-57
2022/06/14 09:58:32;;;;;;;9.07;2.30;;;;;;;27.02;30.95;99930.19;5043587;28;20025;-56
2022/06/14 10:01:12;;;;;;;9.40;2.63;;;;;;;27.04;29.33;99927.91;5064407;28;20037;-56
2022/06/14 10:03:59;;;;;;;9.07;2.40;;;;;;;27.47;27.83;99923.97;5068447;28;20041;-57
2022/06/14 10:06:48;;;;;;;5.15;2.05;;;;;;;26.86;29.83;99922.53;5052587;28;20032;-58
2022/06/14 10:09:19;;;;;;;6.82;2.20;;;;;;;26.50;29.62;99919.50;5067542;28;20041;-55
2022/06/14 10:12:12;;;;;;;8.48;2.33;;;;;;;26.31;30.12;99918.00;5068887;28;20105;-56
2022/06/14 10:14:53;;;;;;;12.25;2.40;;;;;;;25.58;31.14;99910.59;5068856;28;20021;-56
2022/06/14 10:17:40;;;;;;;14.38;2.63;;;;;;;25.57;32.42;99917.25;5058011;28;20032;-56
2022/06/14 10:20:18;;;;;;;8.43;2.55;;;;;;;26.30;31.25;99908.13;5047235;28;20034;-55
2022/06/14 10:22:50;;;;;;;9.35;2.47;;;;;;;26.34;31.42;99906.34;5068331;28;20072;-58
2022/06/14 10:29:00;;;;;;;8.82;2.40;;;;;;;24.70;33.57;99911.75;5013756;28;20472;-56
2022/06/14 10:31:38;;;;;;;7.78;2.53;;;;;;;24.20;33.35;99903.84;5037568;28;20048;-55
2022/06/14 10:34:28;;;;;;;19.70;2.95;;;;;;;24.97;33.14;99909.84;5068349;28;20446;-56
2022/06/14 10:37:01;;;;;;;8.55;2.28;;;;;;;24.45;33.80;99902.34;5064805;28;20025;-55
2022/06/14 10:39:45;;;;;;;8.00;2.40;;;;;;;24.70;34.07;99899.97;5046812;28;20024;-55
2022/06/14 10:42:28;;;;;;;8.70;2.95;;;;;;;24.40;33.90;99901.66;5050760;28;20582;-56
2022/06/14 10:45:14;;;;;;;9.40;2.90;;;;;;;23.61;34.57;99903.22;5066614;28;20028;-55
2022/06/14 10:47:48;;;;;;;7.25;2.47;;;;;;;22.07;36.57;99903.88;5037240;28;20033;-55
2022/06/14 10:50:32;;;;;;;14.82;2.65;;;;;;;22.10;37.55;99900.53;5068027;28;20470;-55
2022/06/14 10:53:05;;;;;;;10.88;2.40;;;;;;;22.52;36.81;99906.84;5062640;28;20506;-56
2022/06/14 10:55:43;;;;;;;10.13;2.30;;;;;;;22.23;36.13;99900.88;5050675;28;20479;-54
2022/06/14 10:58:24;;;;;;;10.07;2.78;;;;;;;23.72;34.80;99901.84;5063414;28;20086;-55
2022/06/14 11:00:50;;;;;;;10.10;2.50;;;;;;;24.26;33.11;99891.66;5065889;28;20020;-55
2022/06/14 11:03:31;;;;;;;15.82;2.70;;;;;;;23.72;33.88;99893.66;5069017;28;20528;-54
2022/06/14 11:06:13;;;;;;;16.30;2.53;;;;;;;24.88;31.50;99892.56;5067787;28;20017;-54
2022/06/14 11:08:48;;;;;;;10.05;2.72;;;;;;;23.95;32.64;99885.41;5034250;28;20055;-55
2022/06/14 11:11:37;;;;;;;12.57;2.42;;;;;;;24.27;32.74;99882.28;5063375;28;20031;-55
2022/06/14 11:14:06;;;;;;;13.48;2.67;;;;;;;23.13;34.63;99884.72;5045352;28;20431;-55
2022/06/14 11:16:39;;;;;;;10.98;2.50;;;;;;;22.10;35.77;99873.25;5054329;28;20304;-54
2022/06/14 11:19:42;;;;;;;16.20;2.90;;;;;;;21.58;36.68;99866.31;5068889;28;20028;-56
2022/06/14 11:22:35;;;;;;;15.27;3.20;;;;;;;23.84;34.74;99861.06;5066507;28;20120;-55
2022/06/14 11:25:23;;;;;;;14.07;2.80;;;;;;;22.85;35.62;99873.06;5031329;28;20029;-54
2022/06/14 11:28:00;;;;;;;9.45;2.53;;;;;;;24.56;33.56;99866.44;5022857;28;20364;-56
2022/06/14 11:30:49;;;;;;;13.65;2.90;;;;;;;24.29;34.21;99858.13;5062105;28;20052;-55
2022/06/14 11:33:47;;;;;;;10.38;2.83;;;;;;;22.99;35.81;99866.47;5028536;28;20032;-56
2022/06/14 11:36:19;;;;;;;11.75;2.83;;;;;;;21.92;37.22;99855.06;5024970;28;20075;-56
2022/06/14 11:39:03;;;;;;;23.17;3.20;;;;;;;21.67;37.95;99848.97;5055612;28;20036;-56
2022/06/14 11:41:34;;;;;;;9.48;2.55;;;;;;;22.79;35.45;99850.53;5059745;28;20032;-56
2022/06/14 11:44:41;;;;;;;15.85;3.13;;;;;;;21.84;36.74;99842.94;5022029;28;20537;-56
2022/06/14 11:47:31;;;;;;;17.33;2.80;;;;;;;21.31;37.26;99837.84;5054550;28;20052;-56
2022/06/14 11:50:36;;;;;;;12.05;2.55;;;;;;;22.12;36.86;99837.47;5062114;28;20148;-55
2022/06/14 11:53:25;;;;;;;15.80;2.58;;;;;;;22.58;36.16;99848.22;5034994;28;20052;-54
2022/06/14 11:56:02;;;;;;;15.63;2.70;;;;;;;22.15;35.66;99840.38;5061758;28;20029;-55
2022/06/14 11:58:50;;;;;;;12.00;2.40;;;;;;;21.94;36.04;99841.91;5050320;28;20032;-55
2022/06/14 12:01:35;;;;;;;11.73;2.33;;;;;;;22.55;36.45;99835.19;5062384;28;20024;-54
2022/06/14 12:04:09;;;;;;;15.00;2.50;;;;;;;24.49;33.71;99834.84;5046529;28;20112;-55
2022/06/14 12:06:54;;;;;;;13.05;2.42;;;;;;;22.47;34.96;99843.31;5066152;28;20079;-56
2022/06/14 12:09:44;;;;;;;14.30;2.65;;;;;;;21.87;35.61;99831.41;5049386;28;20424;-55
2022/06/14 12:12:09;;;;;;;;;;;;;;;23.51;34.31;99821.41;5064946;28;20039;-56
2022/06/14 12:14:47;;;;;;;16.85;2.75;;;;;;;24.04;33.51;99817.81;5067163;28;20018;-56
2022/06/14 12:17:20;;;;;;;17.90;3.20;;;;;;;24.13;32.96;99820.56;5064711;28;20024;-55
2022/06/14 12:19:49;;;;;;;15.60;2.50;;;;;;;24.00;32.49;99816.81;5066583;28;20028;-56
2022/06/14 12:22:55;;;;;;;16.67;2.63;;;;;;;24.58;32.88;99804.69;5033671;28;20029;-56
2022/06/14 12:28:40;;;;;;;14.98;2.35;;;;;;;24.55;31.07;99810.81;5038421;28;20039;-55
2022/06/14 12:31:21;;;;;;;11.00;2.17;;;;;;;24.62;30.88;99811.16;5066743;28;20575;-55